sensor_id;sensor_type;location;lat;lon;timestamp;P1;durP1;ratioP1;P2;durP2;ratioP2
73672;SDS011;61972;19.480;-99.240;2023-05-23T00:01:36;13.65;;;9.27;;
73672;SDS011;61972;19.480;-99.240;2023-05-23T00:04:02;14.30;;;9.02;;
73672;SDS011;61972;19.480;-99.240;2023-05-23T00:06:29;15.63;;;9.38;;
73672;SDS011;61972;19.480;-99.240;2023-05-23T00:08:55;16.40;;;9.13;;
73672;SDS011;61972;19.480;-99.240;2023-05-23T00:11:21;13.52;;;8.93;;
73672;SDS011;61972;19.480;-99.240;2023-05-23T00:13:54;16.30;;;9.10;;
73672;SDS011;61972;19.480;-99.240;2023-05-23T00:16:21;13.95;;;8.68;;
73672;SDS011;61972;19.480;-99.240;2023-05-23T00:18:48;16.23;;;9.10;;
73672;SDS011;61972;19.480;-99.240;2023-05-23T00:21:15;15.40;;;9.40;;
73672;SDS011;61972;19.480;-99.240;2023-05-23T00:23:42;12.85;;;9.32;;
73672;SDS011;61972;19.480;-99.240;2023-05-23T00:26:08;13.15;;;9.27;;
73672;SDS011;61972;19.480;-99.240;2023-05-23T00:28:36;16.23;;;9.40;;
73672;SDS011;61972;19.480;-99.240;2023-05-23T00:31:02;16.60;;;9.63;;
73672;SDS011;61972;19.480;-99.240;2023-05-23T00:33:29;16.00;;;10.20;;
73672;SDS011;61972;19.480;-99.240;2023-05-23T00:36:00;15.35;;;10.13;;
73672;SDS011;61972;19.480;-99.240;2023-05-23T00:38:29;14.75;;;9.50;;
73672;SDS011;61972;19.480;-99.240;2023-05-23T00:40:55;15.10;;;8.70;;
73672;SDS011;61972;19.480;-99.240;2023-05-23T00:43:21;15.90;;;9.13;;
73672;SDS011;61972;19.480;-99.240;2023-05-23T00:45:48;13.37;;;8.97;;
73672;SDS011;61972;19.480;-99.240;2023-05-23T00:48:14;16.38;;;8.73;;
73672;SDS011;61972;19.480;-99.240;2023-05-23T00:50:42;14.50;;;9.35;;
73672;SDS011;61972;19.480;-99.240;2023-05-23T00:53:10;17.55;;;9.18;;
73672;SDS011;61972;19.480;-99.240;2023-05-23T00:55:37;15.30;;;9.57;;
73672;SDS011;61972;19.480;-99.240;2023-05-23T00:58:04;15.47;;;9.53;;
73672;SDS011;61972;19.480;-99.240;2023-05-23T01:00:31;16.52;;;10.10;;
73672;SDS011;61972;19.480;-99.240;2023-05-23T01:03:23;15.98;;;9.30;;
73672;SDS011;61972;19.480;-99.240;2023-05-23T01:05:53;17.38;;;9.20;;
73672;SDS011;61972;19.480;-99.240;2023-05-23T01:08:20;18.13;;;10.07;;
73672;SDS011;61972;19.480;-99.240;2023-05-23T01:10:49;20.40;;;10.60;;
73672;SDS011;61972;19.480;-99.240;2023-05-23T01:13:28;22.70;;;10.32;;
73672;SDS011;61972;19.480;-99.240;2023-05-23T01:16:13;25.23;;;11.20;;
73672;SDS011;61972;19.480;-99.240;2023-05-23T01:19:16;19.70;;;11.00;;
73672;SDS011;61972;19.480;-99.240;2023-05-23T01:27:54;16.38;;;9.45;;
73672;SDS011;61972;19.480;-99.240;2023-05-23T01:30:31;21.75;;;9.52;;
73672;SDS011;61972;19.480;-99.240;2023-05-23T01:33:03;15.02;;;8.98;;
73672;SDS011;61972;19.480;-99.240;2023-05-23T01:35:40;17.40;;;8.60;;
73672;SDS011;61972;19.480;-99.240;2023-05-23T01:38:08;17.57;;;8.53;;
73672;SDS011;61972;19.480;-99.240;2023-05-23T01:40:34;15.30;;;8.60;;
73672;SDS011;61972;19.480;-99.240;2023-05-23T01:43:01;15.70;;;8.40;;
73672;SDS011;61972;19.480;-99.240;2023-05-23T01:45:30;16.88;;;7.82;;
73672;SDS011;61972;19.480;-99.240;2023-05-23T02:00:14;13.27;;;6.88;;
73672;SDS011;61972;19.480;-99.240;2023-05-23T02:02:40;13.10;;;7.53;;
73672;SDS011;61972;19.480;-99.240;2023-05-23T02:05:06;11.13;;;7.33;;
73672;SDS011;61972;19.480;-99.240;2023-05-23T02:07:34;14.65;;;7.30;;
73672;SDS011;61972;19.480;-99.240;2023-05-23T02:10:00;15.65;;;7.90;;
73672;SDS011;61972;19.480;-99.240;2023-05-23T02:12:30;12.35;;;7.50;;
73672;SDS011;61972;19.480;-99.240;2023-05-23T02:14:57;11.60;;;7.55;;
73672;SDS011;61972;19.480;-99.240;2023-05-23T02:17:23;12.07;;;7.73;;
73672;SDS011;61972;19.480;-99.240;2023-05-23T02:19:49;12.63;;;8.23;;
73672;SDS011;61972;19.480;-99.240;2023-05-23T02:22:15;12.32;;;8.23;;
73672;SDS011;61972;19.480;-99.240;2023-05-23T02:24:41;11.15;;;8.48;;
73672;SDS011;61972;19.480;-99.240;2023-05-23T02:27:16;14.05;;;8.32;;
73672;SDS011;61972;19.480;-99.240;2023-05-23T02:29:43;14.90;;;8.87;;
73672;SDS011;61972;19.480;-99.240;2023-05-23T02:32:09;14.43;;;9.40;;
73672;SDS011;61972;19.480;-99.240;2023-05-23T02:34:35;14.20;;;9.77;;
73672;SDS011;61972;19.480;-99.240;2023-05-23T02:37:02;19.25;;;13.43;;
73672;SDS011;61972;19.480;-99.240;2023-05-23T02:39:33;24.33;;;15.95;;
73672;SDS011;61972;19.480;-99.240;2023-05-23T02:42:00;31.83;;;16.57;;
73672;SDS011;61972;19.480;-99.240;2023-05-23T02:44:29;31.52;;;18.63;;
73672;SDS011;61972;19.480;-99.240;2023-05-23T02:46:56;34.08;;;21.17;;
73672;SDS011;61972;19.480;-99.240;2023-05-23T02:49:28;31.15;;;21.65;;
73672;SDS011;61972;19.480;-99.240;2023-05-23T02:51:54;33.15;;;22.65;;
73672;SDS011;61972;19.480;-99.240;2023-05-23T02:54:20;27.50;;;20.30;;
73672;SDS011;61972;19.480;-99.240;2023-05-23T02:56:46;29.60;;;18.73;;
73672;SDS011;61972;19.480;-99.240;2023-05-23T02:59:12;27.02;;;17.05;;
73672;SDS011;61972;19.480;-99.240;2023-05-23T03:01:38;26.17;;;16.23;;
73672;SDS011;61972;19.480;-99.240;2023-05-23T03:04:07;23.52;;;14.80;;
73672;SDS011;61972;19.480;-99.240;2023-05-23T03:06:33;22.67;;;13.43;;
73672;SDS011;61972;19.480;-99.240;2023-05-23T03:09:00;23.85;;;13.68;;
73672;SDS011;61972;19.480;-99.240;2023-05-23T03:11:27;22.50;;;12.48;;
73672;SDS011;61972;19.480;-99.240;2023-05-23T03:13:54;21.85;;;11.93;;
73672;SDS011;61972;19.480;-99.240;2023-05-23T03:16:21;20.92;;;11.73;;
73672;SDS011;61972;19.480;-99.240;2023-05-23T03:18:48;16.33;;;10.27;;
73672;SDS011;61972;19.480;-99.240;2023-05-23T03:21:14;16.75;;;10.63;;
73672;SDS011;61972;19.480;-99.240;2023-05-23T03:23:40;15.85;;;10.30;;
73672;SDS011;61972;19.480;-99.240;2023-05-23T03:26:07;15.85;;;10.38;;
73672;SDS011;61972;19.480;-99.240;2023-05-23T03:28:33;17.10;;;9.85;;
73672;SDS011;61972;19.480;-99.240;2023-05-23T03:30:59;19.40;;;9.03;;
73672;SDS011;61972;19.480;-99.240;2023-05-23T03:33:25;13.40;;;8.88;;
73672;SDS011;61972;19.480;-99.240;2023-05-23T03:35:51;14.75;;;8.80;;
73672;SDS011;61972;19.480;-99.240;2023-05-23T03:38:17;14.65;;;9.18;;
73672;SDS011;61972;19.480;-99.240;2023-05-23T03:40:43;20.02;;;8.68;;
73672;SDS011;61972;19.480;-99.240;2023-05-23T03:43:12;14.03;;;7.70;;
73672;SDS011;61972;19.480;-99.240;2023-05-23T03:45:42;14.43;;;7.45;;
73672;SDS011;61972;19.480;-99.240;2023-05-23T03:48:08;15.45;;;7.82;;
73672;SDS011;61972;19.480;-99.240;2023-05-23T03:50:35;11.40;;;7.60;;
73672;SDS011;61972;19.480;-99.240;2023-05-23T03:53:01;11.73;;;7.65;;
73672;SDS011;61972;19.480;-99.240;2023-05-23T03:55:27;12.10;;;7.13;;
73672;SDS011;61972;19.480;-99.240;2023-05-23T03:57:56;12.13;;;7.80;;
73672;SDS011;61972;19.480;-99.240;2023-05-23T04:00:22;14.20;;;7.50;;
73672;SDS011;61972;19.480;-99.240;2023-05-23T04:02:49;14.85;;;7.97;;
73672;SDS011;61972;19.480;-99.240;2023-05-23T04:05:16;17.60;;;7.97;;
73672;SDS011;61972;19.480;-99.240;2023-05-23T04:07:45;15.07;;;7.77;;
73672;SDS011;61972;19.480;-99.240;2023-05-23T04:10:12;14.68;;;7.88;;
73672;SDS011;61972;19.480;-99.240;2023-05-23T04:12:38;18.15;;;7.60;;
73672;SDS011;61972;19.480;-99.240;2023-05-23T04:15:06;14.75;;;7.00;;
73672;SDS011;61972;19.480;-99.240;2023-05-23T04:17:33;15.35;;;7.35;;
73672;SDS011;61972;19.480;-99.240;2023-05-23T04:20:02;14.33;;;7.60;;
73672;SDS011;61972;19.480;-99.240;2023-05-23T04:22:35;11.88;;;7.10;;
73672;SDS011;61972;19.480;-99.240;2023-05-23T04:25:02;12.63;;;7.63;;
73672;SDS011;61972;19.480;-99.240;2023-05-23T04:27:28;13.13;;;7.72;;
73672;SDS011;61972;19.480;-99.240;2023-05-23T04:29:55;11.95;;;7.38;;
73672;SDS011;61972;19.480;-99.240;2023-05-23T04:32:22;12.03;;;6.80;;
73672;SDS011;61972;19.480;-99.240;2023-05-23T04:34:49;14.40;;;7.03;;
73672;SDS011;61972;19.480;-99.240;2023-05-23T04:37:16;14.68;;;7.22;;
73672;SDS011;61972;19.480;-99.240;2023-05-23T04:39:46;11.18;;;7.03;;
73672;SDS011;61972;19.480;-99.240;2023-05-23T04:42:13;13.55;;;7.05;;
73672;SDS011;61972;19.480;-99.240;2023-05-23T04:44:39;13.70;;;6.70;;
73672;SDS011;61972;19.480;-99.240;2023-05-23T04:47:06;11.70;;;6.78;;
73672;SDS011;61972;19.480;-99.240;2023-05-23T04:49:36;12.18;;;7.28;;
73672;SDS011;61972;19.480;-99.240;2023-05-23T04:52:10;11.45;;;6.90;;
73672;SDS011;61972;19.480;-99.240;2023-05-23T04:54:37;12.85;;;7.25;;
73672;SDS011;61972;19.480;-99.240;2023-05-23T04:57:08;10.13;;;6.60;;
73672;SDS011;61972;19.480;-99.240;2023-05-23T04:59:38;13.27;;;7.18;;
73672;SDS011;61972;19.480;-99.240;2023-05-23T05:02:04;14.38;;;7.13;;
73672;SDS011;61972;19.480;-99.240;2023-05-23T05:04:30;15.57;;;7.68;;
73672;SDS011;61972;19.480;-99.240;2023-05-23T05:06:57;11.32;;;6.82;;
73672;SDS011;61972;19.480;-99.240;2023-05-23T05:09:23;13.40;;;8.17;;
73672;SDS011;61972;19.480;-99.240;2023-05-23T05:11:50;21.10;;;11.95;;
73672;SDS011;61972;19.480;-99.240;2023-05-23T05:14:16;22.25;;;13.25;;
73672;SDS011;61972;19.480;-99.240;2023-05-23T05:16:51;20.50;;;13.07;;
73672;SDS011;61972;19.480;-99.240;2023-05-23T05:19:19;19.02;;;12.75;;
73672;SDS011;61972;19.480;-99.240;2023-05-23T05:21:45;20.90;;;12.70;;
73672;SDS011;61972;19.480;-99.240;2023-05-23T05:24:12;20.58;;;13.60;;
73672;SDS011;61972;19.480;-99.240;2023-05-23T05:26:38;20.45;;;12.63;;
73672;SDS011;61972;19.480;-99.240;2023-05-23T05:29:04;22.27;;;13.27;;
73672;SDS011;61972;19.480;-99.240;2023-05-23T05:31:30;19.25;;;12.50;;
73672;SDS011;61972;19.480;-99.240;2023-05-23T05:33:59;19.43;;;12.43;;
73672;SDS011;61972;19.480;-99.240;2023-05-23T05:36:25;19.13;;;11.93;;
73672;SDS011;61972;19.480;-99.240;2023-05-23T05:38:57;17.63;;;11.82;;
73672;SDS011;61972;19.480;-99.240;2023-05-23T05:41:23;20.25;;;12.55;;
73672;SDS011;61972;19.480;-99.240;2023-05-23T05:43:51;18.85;;;13.05;;
73672;SDS011;61972;19.480;-99.240;2023-05-23T05:46:17;21.47;;;12.43;;
73672;SDS011;61972;19.480;-99.240;2023-05-23T05:48:43;19.17;;;13.60;;
73672;SDS011;61972;19.480;-99.240;2023-05-23T05:51:10;19.17;;;13.85;;
73672;SDS011;61972;19.480;-99.240;2023-05-23T05:53:36;19.75;;;12.57;;
73672;SDS011;61972;19.480;-99.240;2023-05-23T05:56:05;16.60;;;12.05;;
73672;SDS011;61972;19.480;-99.240;2023-05-23T05:58:36;15.30;;;11.27;;
73672;SDS011;61972;19.480;-99.240;2023-05-23T06:01:02;18.85;;;11.25;;
73672;SDS011;61972;19.480;-99.240;2023-05-23T06:03:30;15.20;;;11.27;;
73672;SDS011;61972;19.480;-99.240;2023-05-23T06:05:56;14.77;;;10.13;;
73672;SDS011;61972;19.480;-99.240;2023-05-23T06:08:23;16.48;;;10.55;;
73672;SDS011;61972;19.480;-99.240;2023-05-23T06:10:50;14.77;;;10.40;;
73672;SDS011;61972;19.480;-99.240;2023-05-23T06:13:16;14.40;;;10.27;;
73672;SDS011;61972;19.480;-99.240;2023-05-23T06:15:42;14.32;;;10.45;;
73672;SDS011;61972;19.480;-99.240;2023-05-23T06:18:08;15.05;;;10.13;;
73672;SDS011;61972;19.480;-99.240;2023-05-23T06:20:35;14.57;;;10.30;;
73672;SDS011;61972;19.480;-99.240;2023-05-23T06:23:02;15.27;;;10.40;;
73672;SDS011;61972;19.480;-99.240;2023-05-23T06:25:30;13.82;;;9.98;;
73672;SDS011;61972;19.480;-99.240;2023-05-23T06:27:56;15.88;;;9.77;;
73672;SDS011;61972;19.480;-99.240;2023-05-23T06:30:25;15.57;;;9.95;;
73672;SDS011;61972;19.480;-99.240;2023-05-23T06:32:51;15.77;;;9.77;;
73672;SDS011;61972;19.480;-99.240;2023-05-23T06:35:17;13.90;;;9.53;;
73672;SDS011;61972;19.480;-99.240;2023-05-23T06:37:43;15.15;;;9.60;;
73672;SDS011;61972;19.480;-99.240;2023-05-23T06:40:10;12.80;;;9.07;;
73672;SDS011;61972;19.480;-99.240;2023-05-23T06:42:38;13.50;;;9.27;;
73672;SDS011;61972;19.480;-99.240;2023-05-23T06:45:05;14.93;;;9.00;;
73672;SDS011;61972;19.480;-99.240;2023-05-23T06:47:31;13.43;;;9.33;;
73672;SDS011;61972;19.480;-99.240;2023-05-23T06:49:58;13.90;;;9.43;;
73672;SDS011;61972;19.480;-99.240;2023-05-23T06:52:24;12.30;;;8.98;;
73672;SDS011;61972;19.480;-99.240;2023-05-23T06:54:50;15.15;;;9.00;;
73672;SDS011;61972;19.480;-99.240;2023-05-23T06:57:16;11.98;;;9.38;;
73672;SDS011;61972;19.480;-99.240;2023-05-23T06:59:45;12.37;;;9.13;;
73672;SDS011;61972;19.480;-99.240;2023-05-23T07:02:11;12.25;;;9.05;;
73672;SDS011;61972;19.480;-99.240;2023-05-23T07:04:37;12.88;;;9.02;;
73672;SDS011;61972;19.480;-99.240;2023-05-23T07:07:03;12.05;;;8.70;;
73672;SDS011;61972;19.480;-99.240;2023-05-23T07:09:33;12.10;;;8.80;;
73672;SDS011;61972;19.480;-99.240;2023-05-23T07:11:59;11.00;;;8.90;;
73672;SDS011;61972;19.480;-99.240;2023-05-23T07:14:25;11.48;;;8.70;;
73672;SDS011;61972;19.480;-99.240;2023-05-23T07:16:51;12.82;;;8.80;;
73672;SDS011;61972;19.480;-99.240;2023-05-23T07:19:17;11.50;;;8.55;;
73672;SDS011;61972;19.480;-99.240;2023-05-23T07:21:46;10.98;;;8.32;;
73672;SDS011;61972;19.480;-99.240;2023-05-23T07:24:13;11.60;;;8.40;;
73672;SDS011;61972;19.480;-99.240;2023-05-23T07:26:39;11.43;;;8.35;;
73672;SDS011;61972;19.480;-99.240;2023-05-23T07:29:13;9.93;;;8.32;;
73672;SDS011;61972;19.480;-99.240;2023-05-23T07:31:51;11.50;;;7.90;;
73672;SDS011;61972;19.480;-99.240;2023-05-23T07:34:18;9.98;;;7.95;;
73672;SDS011;61972;19.480;-99.240;2023-05-23T07:36:44;9.60;;;7.87;;
73672;SDS011;61972;19.480;-99.240;2023-05-23T07:39:10;10.30;;;8.35;;
73672;SDS011;61972;19.480;-99.240;2023-05-23T07:41:36;10.85;;;8.25;;
73672;SDS011;61972;19.480;-99.240;2023-05-23T07:44:02;9.90;;;7.57;;
73672;SDS011;61972;19.480;-99.240;2023-05-23T07:46:28;12.00;;;7.95;;
73672;SDS011;61972;19.480;-99.240;2023-05-23T07:48:54;10.10;;;7.90;;
73672;SDS011;61972;19.480;-99.240;2023-05-23T07:51:21;10.30;;;7.75;;
73672;SDS011;61972;19.480;-99.240;2023-05-23T07:53:47;12.88;;;7.22;;
73672;SDS011;61972;19.480;-99.240;2023-05-23T07:56:13;9.90;;;7.70;;
73672;SDS011;61972;19.480;-99.240;2023-05-23T07:58:39;10.07;;;7.78;;
73672;SDS011;61972;19.480;-99.240;2023-05-23T08:01:05;9.77;;;7.60;;
73672;SDS011;61972;19.480;-99.240;2023-05-23T08:03:32;10.00;;;7.75;;
73672;SDS011;61972;19.480;-99.240;2023-05-23T08:05:58;9.32;;;7.13;;
73672;SDS011;61972;19.480;-99.240;2023-05-23T08:08:24;10.35;;;7.78;;
73672;SDS011;61972;19.480;-99.240;2023-05-23T08:10:50;10.75;;;7.65;;
73672;SDS011;61972;19.480;-99.240;2023-05-23T08:13:22;10.10;;;7.37;;
73672;SDS011;61972;19.480;-99.240;2023-05-23T08:15:48;9.43;;;7.30;;
73672;SDS011;61972;19.480;-99.240;2023-05-23T08:18:15;9.80;;;7.68;;
73672;SDS011;61972;19.480;-99.240;2023-05-23T08:20:41;10.07;;;7.25;;
73672;SDS011;61972;19.480;-99.240;2023-05-23T08:23:07;9.43;;;7.47;;
73672;SDS011;61972;19.480;-99.240;2023-05-23T08:25:33;10.60;;;7.10;;
73672;SDS011;61972;19.480;-99.240;2023-05-23T08:28:00;10.15;;;7.25;;
73672;SDS011;61972;19.480;-99.240;2023-05-23T08:30:26;9.25;;;7.20;;
73672;SDS011;61972;19.480;-99.240;2023-05-23T08:32:54;9.50;;;6.70;;
73672;SDS011;61972;19.480;-99.240;2023-05-23T08:35:21;9.85;;;6.97;;
73672;SDS011;61972;19.480;-99.240;2023-05-23T08:37:47;10.10;;;6.90;;
73672;SDS011;61972;19.480;-99.240;2023-05-23T08:40:18;9.05;;;6.95;;
73672;SDS011;61972;19.480;-99.240;2023-05-23T08:42:49;10.93;;;7.53;;
73672;SDS011;61972;19.480;-99.240;2023-05-23T08:45:16;8.98;;;6.60;;
73672;SDS011;61972;19.480;-99.240;2023-05-23T08:47:43;9.10;;;7.30;;
73672;SDS011;61972;19.480;-99.240;2023-05-23T08:50:16;8.90;;;6.70;;
73672;SDS011;61972;19.480;-99.240;2023-05-23T08:53:01;7.93;;;6.70;;
73672;SDS011;61972;19.480;-99.240;2023-05-23T08:55:29;8.95;;;7.22;;
73672;SDS011;61972;19.480;-99.240;2023-05-23T08:57:58;8.13;;;6.53;;
73672;SDS011;61972;19.480;-99.240;2023-05-23T09:00:25;10.32;;;7.10;;
73672;SDS011;61972;19.480;-99.240;2023-05-23T09:02:52;8.43;;;6.67;;
73672;SDS011;61972;19.480;-99.240;2023-05-23T09:05:19;8.07;;;6.15;;
73672;SDS011;61972;19.480;-99.240;2023-05-23T09:07:46;7.68;;;6.35;;
73672;SDS011;61972;19.480;-99.240;2023-05-23T09:10:13;8.82;;;6.63;;
73672;SDS011;61972;19.480;-99.240;2023-05-23T09:12:44;9.15;;;6.70;;
73672;SDS011;61972;19.480;-99.240;2023-05-23T09:15:14;8.80;;;6.80;;
73672;SDS011;61972;19.480;-99.240;2023-05-23T09:17:41;8.60;;;6.68;;
73672;SDS011;61972;19.480;-99.240;2023-05-23T09:20:12;7.85;;;6.47;;
73672;SDS011;61972;19.480;-99.240;2023-05-23T09:22:39;7.93;;;6.00;;
73672;SDS011;61972;19.480;-99.240;2023-05-23T09:25:10;8.00;;;6.25;;
73672;SDS011;61972;19.480;-99.240;2023-05-23T09:27:36;8.43;;;6.60;;
73672;SDS011;61972;19.480;-99.240;2023-05-23T09:30:05;8.05;;;6.45;;
73672;SDS011;61972;19.480;-99.240;2023-05-23T09:32:32;7.13;;;6.13;;
73672;SDS011;61972;19.480;-99.240;2023-05-23T09:35:01;8.95;;;6.55;;
73672;SDS011;61972;19.480;-99.240;2023-05-23T09:37:29;7.80;;;6.32;;
73672;SDS011;61972;19.480;-99.240;2023-05-23T09:40:07;7.80;;;6.00;;
73672;SDS011;61972;19.480;-99.240;2023-05-23T09:42:34;6.88;;;5.70;;
73672;SDS011;61972;19.480;-99.240;2023-05-23T09:45:05;8.00;;;6.20;;
73672;SDS011;61972;19.480;-99.240;2023-05-23T09:47:32;7.63;;;5.50;;
73672;SDS011;61972;19.480;-99.240;2023-05-23T09:49:58;7.00;;;6.00;;
73672;SDS011;61972;19.480;-99.240;2023-05-23T09:52:24;7.23;;;5.87;;
73672;SDS011;61972;19.480;-99.240;2023-05-23T09:54:51;9.38;;;5.45;;
73672;SDS011;61972;19.480;-99.240;2023-05-23T09:57:17;7.07;;;5.68;;
73672;SDS011;61972;19.480;-99.240;2023-05-23T09:59:53;8.88;;;5.50;;
73672;SDS011;61972;19.480;-99.240;2023-05-23T10:02:41;8.38;;;6.13;;
73672;SDS011;61972;19.480;-99.240;2023-05-23T10:05:45;7.57;;;5.60;;
73672;SDS011;61972;19.480;-99.240;2023-05-23T10:08:20;7.00;;;5.40;;
73672;SDS011;61972;19.480;-99.240;2023-05-23T10:13:26;9.95;;;6.22;;
73672;SDS011;61972;19.480;-99.240;2023-05-23T10:16:04;8.38;;;5.60;;
73672;SDS011;61972;19.480;-99.240;2023-05-23T10:18:42;8.00;;;5.20;;
73672;SDS011;61972;19.480;-99.240;2023-05-23T10:21:14;7.40;;;5.43;;
73672;SDS011;61972;19.480;-99.240;2023-05-23T10:23:45;7.38;;;5.38;;
73672;SDS011;61972;19.480;-99.240;2023-05-23T10:26:12;7.38;;;5.68;;
73672;SDS011;61972;19.480;-99.240;2023-05-23T10:28:39;6.93;;;5.65;;
73672;SDS011;61972;19.480;-99.240;2023-05-23T10:31:06;6.90;;;5.60;;
73672;SDS011;61972;19.480;-99.240;2023-05-23T10:33:33;6.80;;;5.18;;
73672;SDS011;61972;19.480;-99.240;2023-05-23T10:36:29;7.72;;;6.20;;
73672;SDS011;61972;19.480;-99.240;2023-05-23T10:39:15;7.00;;;5.85;;
73672;SDS011;61972;19.480;-99.240;2023-05-23T10:41:57;7.72;;;6.07;;
73672;SDS011;61972;19.480;-99.240;2023-05-23T10:44:30;7.90;;;6.20;;
73672;SDS011;61972;19.480;-99.240;2023-05-23T10:46:57;10.80;;;6.82;;
73672;SDS011;61972;19.480;-99.240;2023-05-23T10:49:43;9.43;;;6.72;;
73672;SDS011;61972;19.480;-99.240;2023-05-23T10:52:11;7.93;;;6.13;;
73672;SDS011;61972;19.480;-99.240;2023-05-23T10:54:53;8.75;;;6.88;;
73672;SDS011;61972;19.480;-99.240;2023-05-23T10:57:25;8.13;;;6.23;;
73672;SDS011;61972;19.480;-99.240;2023-05-23T10:59:54;8.23;;;6.35;;
73672;SDS011;61972;19.480;-99.240;2023-05-23T11:02:25;9.68;;;6.90;;
73672;SDS011;61972;19.480;-99.240;2023-05-23T11:07:40;9.32;;;6.65;;
73672;SDS011;61972;19.480;-99.240;2023-05-23T11:10:10;8.97;;;6.30;;
73672;SDS011;61972;19.480;-99.240;2023-05-23T11:12:41;10.02;;;6.57;;
73672;SDS011;61972;19.480;-99.240;2023-05-23T11:17:51;8.77;;;6.60;;
73672;SDS011;61972;19.480;-99.240;2023-05-23T11:20:20;11.02;;;7.05;;
73672;SDS011;61972;19.480;-99.240;2023-05-23T11:23:01;12.47;;;7.27;;
73672;SDS011;61972;19.480;-99.240;2023-05-23T11:25:44;10.48;;;7.22;;
73672;SDS011;61972;19.480;-99.240;2023-05-23T11:28:19;10.52;;;7.35;;
73672;SDS011;61972;19.480;-99.240;2023-05-23T11:30:50;10.02;;;7.35;;
73672;SDS011;61972;19.480;-99.240;2023-05-23T11:33:19;9.77;;;7.28;;
73672;SDS011;61972;19.480;-99.240;2023-05-23T11:35:46;9.27;;;7.30;;
73672;SDS011;61972;19.480;-99.240;2023-05-23T11:38:15;11.40;;;7.25;;
73672;SDS011;61972;19.480;-99.240;2023-05-23T11:40:42;11.85;;;8.00;;
73672;SDS011;61972;19.480;-99.240;2023-05-23T11:43:17;10.50;;;7.65;;
73672;SDS011;61972;19.480;-99.240;2023-05-23T11:45:43;10.68;;;8.02;;
73672;SDS011;61972;19.480;-99.240;2023-05-23T11:48:13;9.73;;;7.27;;
73672;SDS011;61972;19.480;-99.240;2023-05-23T11:50:45;12.02;;;7.85;;
73672;SDS011;61972;19.480;-99.240;2023-05-23T11:53:13;11.27;;;7.72;;
73672;SDS011;61972;19.480;-99.240;2023-05-23T11:55:57;9.75;;;7.50;;
73672;SDS011;61972;19.480;-99.240;2023-05-23T11:58:36;10.30;;;8.02;;
73672;SDS011;61972;19.480;-99.240;2023-05-23T12:01:04;9.50;;;7.60;;
73672;SDS011;61972;19.480;-99.240;2023-05-23T12:03:32;10.25;;;7.85;;
73672;SDS011;61972;19.480;-99.240;2023-05-23T12:05:58;12.38;;;8.65;;
73672;SDS011;61972;19.480;-99.240;2023-05-23T12:08:26;11.60;;;8.75;;
73672;SDS011;61972;19.480;-99.240;2023-05-23T12:10:56;11.25;;;8.80;;
73672;SDS011;61972;19.480;-99.240;2023-05-23T12:13:23;10.93;;;7.63;;
73672;SDS011;61972;19.480;-99.240;2023-05-23T12:15:54;13.48;;;8.10;;
73672;SDS011;61972;19.480;-99.240;2023-05-23T12:18:27;10.73;;;8.30;;
73672;SDS011;61972;19.480;-99.240;2023-05-23T12:20:54;10.25;;;8.43;;
73672;SDS011;61972;19.480;-99.240;2023-05-23T12:23:24;10.25;;;8.45;;
73672;SDS011;61972;19.480;-99.240;2023-05-23T12:25:53;9.77;;;7.90;;
73672;SDS011;61972;19.480;-99.240;2023-05-23T12:28:20;10.63;;;7.55;;
73672;SDS011;61972;19.480;-99.240;2023-05-23T12:30:59;10.35;;;8.00;;
73672;SDS011;61972;19.480;-99.240;2023-05-23T12:33:43;12.15;;;8.65;;
73672;SDS011;61972;19.480;-99.240;2023-05-23T12:36:10;10.63;;;8.38;;
73672;SDS011;61972;19.480;-99.240;2023-05-23T12:38:37;12.47;;;8.13;;
73672;SDS011;61972;19.480;-99.240;2023-05-23T12:41:08;11.40;;;7.88;;
73672;SDS011;61972;19.480;-99.240;2023-05-23T12:43:39;13.13;;;8.40;;
73672;SDS011;61972;19.480;-99.240;2023-05-23T12:46:06;11.18;;;8.15;;
73672;SDS011;61972;19.480;-99.240;2023-05-23T12:48:53;10.75;;;8.52;;
73672;SDS011;61972;19.480;-99.240;2023-05-23T12:51:22;11.67;;;8.17;;
73672;SDS011;61972;19.480;-99.240;2023-05-23T12:53:48;10.13;;;8.02;;
73672;SDS011;61972;19.480;-99.240;2023-05-23T12:56:15;11.43;;;8.65;;
73672;SDS011;61972;19.480;-99.240;2023-05-23T12:58:41;11.52;;;7.88;;
73672;SDS011;61972;19.480;-99.240;2023-05-23T13:01:07;10.65;;;8.15;;
73672;SDS011;61972;19.480;-99.240;2023-05-23T13:03:38;10.47;;;7.90;;
73672;SDS011;61972;19.480;-99.240;2023-05-23T13:06:04;10.52;;;7.93;;
73672;SDS011;61972;19.480;-99.240;2023-05-23T13:08:31;10.48;;;8.15;;
73672;SDS011;61972;19.480;-99.240;2023-05-23T13:10:57;11.48;;;7.80;;
73672;SDS011;61972;19.480;-99.240;2023-05-23T13:13:24;13.00;;;8.30;;
73672;SDS011;61972;19.480;-99.240;2023-05-23T13:15:54;10.87;;;8.20;;
73672;SDS011;61972;19.480;-99.240;2023-05-23T13:18:20;12.02;;;8.10;;
73672;SDS011;61972;19.480;-99.240;2023-05-23T13:20:46;11.70;;;8.50;;
73672;SDS011;61972;19.480;-99.240;2023-05-23T13:23:13;12.40;;;8.50;;
73672;SDS011;61972;19.480;-99.240;2023-05-23T13:25:39;11.88;;;8.75;;
73672;SDS011;61972;19.480;-99.240;2023-05-23T13:28:08;12.23;;;8.23;;
73672;SDS011;61972;19.480;-99.240;2023-05-23T13:30:34;12.07;;;8.68;;
73672;SDS011;61972;19.480;-99.240;2023-05-23T13:33:02;13.10;;;8.95;;
73672;SDS011;61972;19.480;-99.240;2023-05-23T13:35:29;12.40;;;8.90;;
73672;SDS011;61972;19.480;-99.240;2023-05-23T13:37:55;11.75;;;9.13;;
73672;SDS011;61972;19.480;-99.240;2023-05-23T13:40:21;10.40;;;8.60;;
73672;SDS011;61972;19.480;-99.240;2023-05-23T13:42:48;12.55;;;8.90;;
73672;SDS011;61972;19.480;-99.240;2023-05-23T13:45:15;13.10;;;8.63;;
73672;SDS011;61972;19.480;-99.240;2023-05-23T13:47:42;12.50;;;9.02;;
73672;SDS011;61972;19.480;-99.240;2023-05-23T13:50:08;15.95;;;8.43;;
73672;SDS011;61972;19.480;-99.240;2023-05-23T13:52:44;14.17;;;9.37;;
73672;SDS011;61972;19.480;-99.240;2023-05-23T13:55:10;12.43;;;8.77;;
73672;SDS011;61972;19.480;-99.240;2023-05-23T13:57:36;12.00;;;9.50;;
73672;SDS011;61972;19.480;-99.240;2023-05-23T14:00:02;12.75;;;8.95;;
73672;SDS011;61972;19.480;-99.240;2023-05-23T14:02:29;11.57;;;9.15;;
73672;SDS011;61972;19.480;-99.240;2023-05-23T14:04:58;13.50;;;8.87;;
73672;SDS011;61972;19.480;-99.240;2023-05-23T14:07:24;13.02;;;8.95;;
73672;SDS011;61972;19.480;-99.240;2023-05-23T14:09:50;12.40;;;9.18;;
73672;SDS011;61972;19.480;-99.240;2023-05-23T14:12:16;13.93;;;9.23;;
73672;SDS011;61972;19.480;-99.240;2023-05-23T14:14:43;13.45;;;9.10;;
73672;SDS011;61972;19.480;-99.240;2023-05-23T14:17:13;13.80;;;9.20;;
73672;SDS011;61972;19.480;-99.240;2023-05-23T14:19:42;12.73;;;8.57;;
73672;SDS011;61972;19.480;-99.240;2023-05-23T14:22:08;11.63;;;9.38;;
73672;SDS011;61972;19.480;-99.240;2023-05-23T14:24:35;13.55;;;9.43;;
73672;SDS011;61972;19.480;-99.240;2023-05-23T14:27:02;14.68;;;9.82;;
73672;SDS011;61972;19.480;-99.240;2023-05-23T14:29:28;14.77;;;9.57;;
73672;SDS011;61972;19.480;-99.240;2023-05-23T14:31:57;12.60;;;8.82;;
73672;SDS011;61972;19.480;-99.240;2023-05-23T14:34:25;12.05;;;9.35;;
73672;SDS011;61972;19.480;-99.240;2023-05-23T14:36:51;14.63;;;9.18;;
73672;SDS011;61972;19.480;-99.240;2023-05-23T14:39:17;12.73;;;9.82;;
73672;SDS011;61972;19.480;-99.240;2023-05-23T14:41:44;13.40;;;10.20;;
73672;SDS011;61972;19.480;-99.240;2023-05-23T14:44:17;14.07;;;9.57;;